Time;durP1;ratioP1;P1;durP2;ratioP2;P2;SDS_P1;SDS_P2;PMS_P1;PMS_P2;Temp;Humidity;BMP_temperature;BMP_pressure;BME280_temperature;BME280_humidity;BME280_pressure;Samples;Min_cycle;Max_cycle;Signal;HPM_P1;HPM_P2
2021/10/21 00:00:07;;;;;;;44.92;20.95;;;12.50;99.90;;;;;;6060899;23;20085;-46
2021/10/21 00:02:38;;;;;;;38.22;22.55;;;12.50;99.90;;;;;;6061653;23;20038;-47
2021/10/21 00:05:07;;;;;;;40.33;21.08;;;12.60;99.90;;;;;;6062053;23;20026;-47
2021/10/21 00:07:34;;;;;;;39.97;21.17;;;12.60;99.90;;;;;;6061434;23;20066;-47
2021/10/21 00:10:02;;;;;;;36.90;20.65;;;12.60;99.90;;;;;;6061809;23;20023;-51
2021/10/21 00:12:32;;;;;;;30.98;18.42;;;12.60;99.90;;;;;;6062012;23;20033;-45
2021/10/21 00:14:59;;;;;;;33.17;18.70;;;12.70;99.90;;;;;;6061287;23;20023;-46
2021/10/21 00:17:28;;;;;;;35.65;17.00;;;12.70;99.90;;;;;;6061242;23;20484;-46
2021/10/21 00:19:55;;;;;;;30.05;16.48;;;12.70;99.90;;;;;;6061336;23;20030;-45
2021/10/21 00:22:21;;;;;;;34.60;16.45;;;12.70;99.90;;;;;;6035817;23;20042;-45
2021/10/21 00:24:47;;;;;;;28.10;14.20;;;12.70;99.90;;;;;;6061986;23;20105;-45
2021/10/21 00:27:14;;;;;;;26.15;12.77;;;12.70;99.90;;;;;;6062210;23;20031;-46
2021/10/21 00:29:40;;;;;;;31.95;15.25;;;12.70;99.90;;;;;;6061895;23;20022;-45
2021/10/21 00:32:06;;;;;;;34.05;15.45;;;12.70;99.90;;;;;;6061108;23;20823;-47
2021/10/21 00:34:32;;;;;;;22.27;13.10;;;12.70;99.90;;;;;;6062185;23;20090;-47
2021/10/21 00:36:58;;;;;;;20.80;11.35;;;12.70;99.90;;;;;;6063384;23;20034;-45
2021/10/21 00:39:24;;;;;;;24.83;13.60;;;12.70;99.90;;;;;;6063138;23;20031;-44
2021/10/21 00:41:51;;;;;;;28.63;13.50;;;12.60;99.90;;;;;;6061561;23;20031;-46
2021/10/21 00:44:20;;;;;;;28.08;14.85;;;12.70;99.90;;;;;;6038513;23;20119;-45
2021/10/21 00:46:47;;;;;;;32.78;14.93;;;12.70;99.90;;;;;;6063064;23;20441;-47
2021/10/21 00:49:14;;;;;;;26.63;15.85;;;12.70;99.90;;;;;;6063292;23;20464;-47
2021/10/21 00:51:41;;;;;;;31.15;15.55;;;12.70;99.90;;;;;;6063035;23;20038;-45
2021/10/21 00:54:08;;;;;;;34.90;17.98;;;12.70;99.90;;;;;;6062606;23;20528;-45
2021/10/21 00:56:37;;;;;;;32.58;17.20;;;12.70;99.90;;;;;;6063253;23;20165;-45
2021/10/21 00:59:08;;;;;;;42.88;17.60;;;12.80;99.90;;;;;;6062922;23;20033;-48
2021/10/21 01:01:36;;;;;;;35.40;17.42;;;12.80;99.90;;;;;;6037592;23;20029;-50
2021/10/21 01:04:05;;;;;;;31.83;16.02;;;12.80;99.90;;;;;;6063202;23;20149;-44
2021/10/21 01:06:32;;;;;;;31.05;16.67;;;12.80;99.90;;;;;;6062874;23;20666;-45
2021/10/21 01:09:03;;;;;;;31.70;17.00;;;12.80;99.90;;;;;;6063075;23;20086;-46
2021/10/21 01:11:29;;;;;;;37.03;17.77;;;12.80;99.90;;;;;;6062161;23;20146;-47
2021/10/21 01:13:55;;;;;;;35.40;17.83;;;12.80;99.90;;;;;;6063134;23;20023;-48
2021/10/21 01:16:21;;;;;;;50.28;20.90;;;12.80;99.90;;;;;;6062710;23;20201;-43
2021/10/21 01:18:50;;;;;;;36.50;18.05;;;12.70;99.90;;;;;;6037132;23;20444;-45
2021/10/21 01:21:19;;;;;;;26.90;16.27;;;12.80;99.90;;;;;;6062263;23;20026;-46
2021/10/21 01:23:45;;;;;;;32.78;17.60;;;12.80;99.90;;;;;;6062731;23;20142;-43
2021/10/21 01:26:13;;;;;;;29.48;15.93;;;12.70;99.90;;;;;;6062912;23;20473;-46
2021/10/21 01:28:42;;;;;;;30.33;15.97;;;12.70;99.90;;;;;;6062992;23;20338;-45
2021/10/21 01:31:09;;;;;;;27.20;15.20;;;12.70;99.90;;;;;;6062802;23;20037;-43
2021/10/21 01:33:36;;;;;;;21.10;11.70;;;12.70;99.90;;;;;;6063251;23;20057;-44
2021/10/21 01:36:04;;;;;;;22.85;13.85;;;12.60;99.90;;;;;;6063162;23;20364;-44
2021/10/21 01:38:30;;;;;;;29.20;12.48;;;12.70;99.90;;;;;;6063930;23;20031;-46
2021/10/21 01:40:56;;;;;;;15.73;10.10;;;12.60;99.90;;;;;;6062991;23;20034;-44
2021/10/21 01:43:22;;;;;;;20.58;10.85;;;12.70;99.90;;;;;;6062940;23;20066;-44
2021/10/21 01:45:52;;;;;;;18.55;9.65;;;12.60;99.90;;;;;;6063440;23;20022;-42
2021/10/21 01:48:19;;;;;;;17.77;9.82;;;12.60;99.90;;;;;;6062029;23;20027;-44
2021/10/21 01:50:45;;;;;;;14.05;8.38;;;12.60;99.90;;;;;;6063169;23;20034;-44
2021/10/21 01:53:11;;;;;;;17.83;9.38;;;12.50;99.90;;;;;;6062479;23;20030;-45
2021/10/21 01:55:38;;;;;;;13.38;8.27;;;12.50;99.90;;;;;;6062631;23;20027;-42
2021/10/21 01:58:05;;;;;;;23.23;9.55;;;12.50;99.90;;;;;;6063687;23;20031;-43
2021/10/21 02:00:31;;;;;;;22.73;9.98;;;12.50;99.90;;;;;;6038252;23;20113;-43
2021/10/21 02:03:00;;;;;;;19.85;10.38;;;12.50;99.90;;;;;;6062928;23;20030;-43
2021/10/21 02:05:26;;;;;;;16.17;9.20;;;12.50;99.90;;;;;;6063659;23;20031;-43
2021/10/21 02:07:55;;;;;;;28.83;10.13;;;12.50;99.90;;;;;;6063028;23;20113;-43
2021/10/21 02:10:21;;;;;;;24.88;11.27;;;12.50;99.90;;;;;;6063507;23;20023;-43
2021/10/21 02:12:50;;;;;;;33.30;11.88;;;12.50;99.90;;;;;;6062560;23;20065;-43
2021/10/21 02:15:16;;;;;;;14.43;8.15;;;12.40;99.90;;;;;;6062199;23;20058;-41
2021/10/21 02:17:42;;;;;;;9.70;5.57;;;12.50;99.90;;;;;;6062222;23;20039;-42
2021/10/21 02:20:12;;;;;;;10.65;6.13;;;12.50;99.90;;;;;;6062523;23;20098;-41
2021/10/21 02:22:41;;;;;;;6.20;4.93;;;12.50;99.90;;;;;;6062512;23;20033;-42
2021/10/21 02:25:09;;;;;;;10.63;6.32;;;12.50;99.90;;;;;;6062114;23;20027;-41
2021/10/21 02:27:36;;;;;;;7.13;3.10;;;12.60;99.90;;;;;;6035607;23;20350;-42
2021/10/21 02:30:04;;;;;;;7.68;2.95;;;12.50;99.90;;;;;;6035930;23;20405;-41
2021/10/21 02:32:30;;;;;;;5.38;2.00;;;12.10;99.90;;;;;;6061860;23;20106;-38
2021/10/21 02:34:56;;;;;;;3.90;1.00;;;11.80;99.90;;;;;;6062503;23;20699;-41
2021/10/21 02:37:23;;;;;;;4.90;1.20;;;11.40;99.90;;;;;;6062099;23;20493;-40
2021/10/21 02:39:50;;;;;;;4.03;1.35;;;11.20;99.90;;;;;;6061380;23;20034;-41
2021/10/21 02:42:16;;;;;;;5.05;2.20;;;11.10;99.90;;;;;;6062224;23;20023;-41
2021/10/21 02:44:42;;;;;;;2.90;1.38;;;11.00;99.90;;;;;;6061951;23;20034;-41
2021/10/21 02:47:08;;;;;;;3.30;1.50;;;11.00;99.90;;;;;;6061837;23;20464;-41
2021/10/21 02:49:34;;;;;;;3.58;1.15;;;11.00;99.90;;;;;;6062241;23;20069;-40
2021/10/21 02:52:00;;;;;;;3.30;1.10;;;10.90;99.90;;;;;;6062005;23;20475;-41
2021/10/21 02:54:26;;;;;;;2.67;0.80;;;10.80;99.90;;;;;;6061973;23;20090;-41
2021/10/21 02:56:52;;;;;;;4.00;1.20;;;10.70;99.90;;;;;;6062700;23;20030;-40
2021/10/21 02:59:18;;;;;;;4.32;1.33;;;10.70;99.90;;;;;;6062863;23;20049;-41
2021/10/21 03:01:44;;;;;;;6.07;1.40;;;10.60;99.90;;;;;;6063247;23;20031;-41
2021/10/21 03:04:10;;;;;;;3.90;1.00;;;10.50;99.90;;;;;;6062754;23;20137;-40
2021/10/21 03:06:36;;;;;;;6.15;1.08;;;10.50;99.90;;;;;;6062900;23;20758;-41
2021/10/21 03:09:02;;;;;;;4.30;1.27;;;10.40;99.90;;;;;;6062599;23;20018;-41
2021/10/21 03:11:28;;;;;;;6.75;1.02;;;10.30;99.90;;;;;;6062809;23;20037;-42
2021/10/21 03:13:54;;;;;;;4.95;0.90;;;10.40;99.90;;;;;;6061755;23;20023;-42
2021/10/21 03:16:21;;;;;;;6.07;1.25;;;10.30;99.90;;;;;;6061813;23;20049;-42
2021/10/21 03:18:47;;;;;;;3.55;1.05;;;10.40;99.90;;;;;;6062448;23;20034;-41
2021/10/21 03:21:13;;;;;;;5.28;1.15;;;10.30;99.90;;;;;;6061913;23;20027;-42
2021/10/21 03:23:39;;;;;;;5.72;1.30;;;10.40;99.90;;;;;;6062012;23;20030;-42
2021/10/21 03:26:05;;;;;;;4.97;0.80;;;10.40;99.90;;;;;;6062174;23;20109;-42
2021/10/21 03:28:31;;;;;;;5.22;0.90;;;10.30;99.90;;;;;;6061221;23;20203;-41
2021/10/21 03:30:57;;;;;;;6.78;1.50;;;10.40;99.90;;;;;;6061600;23;20177;-43
2021/10/21 03:33:23;;;;;;;4.28;1.20;;;10.40;99.90;;;;;;6060217;23;20114;-43
2021/10/21 03:35:49;;;;;;;5.43;1.40;;;10.40;99.90;;;;;;6036064;23;20383;-40
2021/10/21 03:38:15;;;;;;;6.43;1.40;;;10.40;99.90;;;;;;6035528;23;20041;-42
2021/10/21 03:40:41;;;;;;;5.03;1.33;;;10.50;99.90;;;;;;6061511;23;20023;-41
2021/10/21 03:43:07;;;;;;;5.03;1.40;;;10.50;99.90;;;;;;6061548;23;20105;-41
2021/10/21 03:45:33;;;;;;;5.25;1.20;;;10.40;99.90;;;;;;6060758;23;20026;-42
2021/10/21 03:47:59;;;;;;;6.78;1.13;;;10.50;99.90;;;;;;6061392;23;20078;-43
2021/10/21 03:50:25;;;;;;;3.53;0.85;;;10.40;99.90;;;;;;6061191;23;20122;-41
2021/10/21 03:52:51;;;;;;;5.13;1.30;;;10.50;99.90;;;;;;6060797;23;20037;-42
2021/10/21 03:55:17;;;;;;;4.38;1.48;;;10.50;99.90;;;;;;6061654;23;20030;-41
2021/10/21 03:57:43;;;;;;;4.35;1.30;;;10.50;99.90;;;;;;6061999;23;20090;-43
2021/10/21 04:00:10;;;;;;;5.65;1.23;;;10.40;99.90;;;;;;6062381;23;20034;-41
2021/10/21 04:02:39;;;;;;;4.82;1.25;;;10.40;99.90;;;;;;6061931;23;20033;-42
2021/10/21 04:05:06;;;;;;;4.15;1.42;;;10.40;99.90;;;;;;6060521;23;20030;-41
2021/10/21 04:07:34;;;;;;;7.63;1.30;;;10.40;99.90;;;;;;6061222;23;20046;-41
2021/10/21 04:10:01;;;;;;;3.28;1.20;;;10.40;99.90;;;;;;6061628;23;20058;-42
2021/10/21 04:12:27;;;;;;;3.85;1.20;;;10.30;99.90;;;;;;6063439;23;20097;-44
2021/10/21 04:14:53;;;;;;;5.88;1.75;;;10.40;99.90;;;;;;6038343;23;20728;-43
2021/10/21 04:17:20;;;;;;;3.65;1.40;;;10.30;99.90;;;;;;6063919;23;20034;-42
2021/10/21 04:19:49;;;;;;;6.50;1.55;;;10.30;99.90;;;;;;6064040;23;20038;-43
2021/10/21 04:22:17;;;;;;;2.90;1.10;;;10.30;99.90;;;;;;6064081;23;20041;-42
2021/10/21 04:24:43;;;;;;;6.47;1.55;;;10.30;99.90;;;;;;6063452;23;20023;-41
2021/10/21 04:27:09;;;;;;;5.35;1.10;;;10.20;99.90;;;;;;6062623;23;20035;-42
2021/10/21 04:29:35;;;;;;;5.50;1.33;;;10.20;99.90;;;;;;6063147;23;20102;-41
2021/10/21 04:32:04;;;;;;;8.75;1.30;;;10.20;99.90;;;;;;6062912;23;20029;-39
2021/10/21 04:34:30;;;;;;;8.95;1.38;;;10.20;99.90;;;;;;6062767;23;20400;-39
2021/10/21 04:37:02;;;;;;;5.88;1.50;;;10.20;99.90;;;;;;6063763;23;20095;-38
2021/10/21 04:39:28;;;;;;;;;;;10.10;99.90;;;;;;6064425;23;20031;-39
2021/10/21 04:41:56;;;;;;;7.30;1.50;;;10.10;99.90;;;;;;6064099;23;19932;-39
2021/10/21 04:44:23;;;;;;;8.48;1.65;;;10.10;99.90;;;;;;6063470;23;20033;-41
2021/10/21 04:46:54;;;;;;;4.78;1.25;;;10.10;99.90;;;;;;6063434;23;20019;-39
2021/10/21 04:49:20;;;;;;;5.25;0.93;;;10.10;99.90;;;;;;6062811;23;20034;-39
2021/10/21 04:51:46;;;;;;;3.30;0.88;;;10.10;99.90;;;;;;6063427;23;20018;-39
2021/10/21 04:54:12;;;;;;;4.80;0.95;;;10.00;99.90;;;;;;6062997;23;20691;-39
2021/10/21 04:56:38;;;;;;;4.80;1.02;;;9.90;99.90;;;;;;6063811;23;20034;-39
2021/10/21 04:59:07;;;;;;;7.32;1.58;;;9.90;99.90;;;;;;6063340;23;20033;-41
2021/10/21 05:01:33;;;;;;;5.63;1.05;;;9.90;99.90;;;;;;6037462;23;20090;-40
2021/10/21 05:03:59;;;;;;;4.43;0.80;;;9.90;99.90;;;;;;6063101;23;20022;-40
2021/10/21 05:06:25;;;;;;;3.17;1.00;;;10.00;99.90;;;;;;6063013;23;20031;-39
2021/10/21 05:08:51;;;;;;;1.98;0.75;;;9.90;99.90;;;;;;6062725;23;20031;-39
2021/10/21 05:11:19;;;;;;;5.78;1.13;;;9.90;99.90;;;;;;6062425;23;20034;-41
2021/10/21 05:13:45;;;;;;;3.70;0.80;;;9.90;99.90;;;;;;6062720;23;20081;-39
2021/10/21 05:16:11;;;;;;;3.88;0.77;;;9.80;99.90;;;;;;6063201;23;20062;-40
2021/10/21 05:18:41;;;;;;;5.75;1.10;;;9.80;99.90;;;;;;6063356;23;20026;-42
2021/10/21 05:21:07;;;;;;;2.88;0.68;;;9.80;99.90;;;;;;6036504;23;20463;-39
2021/10/21 05:23:33;;;;;;;6.68;1.05;;;9.80;99.90;;;;;;6062899;23;20609;-39
2021/10/21 05:25:59;;;;;;;6.30;0.88;;;9.80;99.90;;;;;;6061794;23;20461;-39
2021/10/21 05:28:28;;;;;;;5.38;0.88;;;9.80;99.90;;;;;;6063682;23;20062;-39
2021/10/21 05:30:57;;;;;;;4.05;0.73;;;9.70;99.90;;;;;;6061133;23;20035;-39
2021/10/21 05:33:25;;;;;;;4.78;0.90;;;9.70;99.90;;;;;;6063150;23;20658;-40
2021/10/21 05:35:51;;;;;;;5.25;1.73;;;9.70;99.90;;;;;;6062919;23;20086;-40
2021/10/21 05:38:17;;;;;;;4.32;1.02;;;9.70;99.90;;;;;;6062999;23;20082;-41
2021/10/21 05:40:43;;;;;;;2.72;0.73;;;9.70;99.90;;;;;;6063815;23;20118;-40
2021/10/21 05:43:10;;;;;;;5.55;0.85;;;9.60;99.90;;;;;;6063508;23;20386;-40
2021/10/21 05:45:36;;;;;;;5.78;0.90;;;9.50;99.90;;;;;;6062502;23;20027;-42
2021/10/21 05:48:02;;;;;;;5.85;2.35;;;9.50;99.90;;;;;;6037155;23;20042;-41
2021/10/21 05:50:29;;;;;;;3.75;0.85;;;9.40;99.90;;;;;;6062914;23;20027;-42
2021/10/21 05:52:54;;;;;;;8.23;2.33;;;9.30;99.90;;;;;;6063145;23;20119;-41
2021/10/21 05:55:21;;;;;;;4.85;1.00;;;9.30;99.90;;;;;;6061890;23;20023;-41
2021/10/21 05:57:47;;;;;;;4.35;0.80;;;9.20;99.90;;;;;;6062693;23;20038;-42
2021/10/21 06:00:13;;;;;;;8.48;4.75;;;9.20;99.90;;;;;;6037704;23;20424;-43
2021/10/21 06:02:39;;;;;;;2.83;0.98;;;9.10;99.90;;;;;;6062867;23;20038;-42
2021/10/21 06:05:08;;;;;;;4.05;1.60;;;9.10;99.90;;;;;;6035962;23;20546;-42
2021/10/21 06:07:34;;;;;;;4.07;0.80;;;9.10;99.90;;;;;;6061748;23;20023;-42
2021/10/21 06:10:00;;;;;;;6.53;2.10;;;9.00;99.90;;;;;;6062186;23;20031;-42
2021/10/21 06:12:26;;;;;;;3.00;0.63;;;9.10;99.90;;;;;;6062164;23;20022;-41
2021/10/21 06:14:55;;;;;;;4.25;1.13;;;9.00;99.90;;;;;;6062109;23;20030;-42
2021/10/21 06:17:23;;;;;;;6.13;1.02;;;9.00;99.90;;;;;;6062479;23;20062;-41
2021/10/21 06:19:50;;;;;;;5.47;0.68;;;9.00;99.90;;;;;;6062340;23;20086;-42
2021/10/21 06:22:18;;;;;;;3.75;0.40;;;9.00;99.90;;;;;;6062676;23;20031;-41
2021/10/21 06:24:46;;;;;;;3.65;0.60;;;9.00;99.90;;;;;;6062470;23;20090;-41
2021/10/21 06:27:15;;;;;;;3.83;0.73;;;9.00;99.90;;;;;;6062138;23;20110;-41
2021/10/21 06:29:41;;;;;;;2.63;0.70;;;9.00;99.90;;;;;;6062871;23;20468;-41
2021/10/21 06:32:13;;;;;;;2.20;0.90;;;9.00;99.90;;;;;;6062427;23;20027;-41
2021/10/21 06:34:42;;;;;;;5.05;0.85;;;9.10;99.90;;;;;;6061702;23;20065;-41
2021/10/21 06:37:08;;;;;;;2.10;0.70;;;9.10;99.90;;;;;;6061772;23;20105;-42
2021/10/21 06:39:34;;;;;;;8.00;1.10;;;9.10;99.90;;;;;;6062359;23;20031;-41
2021/10/21 06:42:00;;;;;;;8.38;1.75;;;9.20;99.90;;;;;;6062215;23;20033;-42
2021/10/21 06:44:27;;;;;;;6.68;1.90;;;9.30;99.90;;;;;;6061501;23;20468;-42
2021/10/21 06:46:56;;;;;;;9.50;1.98;;;9.30;99.90;;;;;;6059466;23;20089;-41
2021/10/21 06:49:22;;;;;;;9.80;2.03;;;9.40;99.90;;;;;;6061369;23;20609;-43
2021/10/21 06:51:48;;;;;;;5.43;1.83;;;9.40;99.90;;;;;;6062015;23;20027;-41
2021/10/21 06:54:14;;;;;;;10.07;1.65;;;9.50;99.90;;;;;;6036010;23;20037;-41
2021/10/21 06:56:43;;;;;;;7.53;1.85;;;9.50;99.90;;;;;;6061265;23;20037;-39
2021/10/21 06:59:10;;;;;;;12.65;2.83;;;9.50;99.90;;;;;;6060764;23;20027;-43
2021/10/21 07:01:36;;;;;;;5.55;1.60;;;9.60;99.90;;;;;;6060329;23;20034;-41
2021/10/21 07:04:03;;;;;;;7.95;2.10;;;9.60;99.90;;;;;;6035797;23;20086;-41
2021/10/21 07:06:30;;;;;;;8.65;2.70;;;9.60;99.90;;;;;;6061793;23;20027;-43
2021/10/21 07:08:59;;;;;;;12.05;2.10;;;9.60;99.90;;;;;;6034963;23;20049;-42
2021/10/21 07:11:25;;;;;;;7.65;1.48;;;9.70;99.90;;;;;;6061045;23;20057;-41
2021/10/21 07:13:51;;;;;;;11.93;2.20;;;9.70;99.90;;;;;;6061423;23;20360;-43
2021/10/21 07:16:17;;;;;;;12.35;2.30;;;9.70;99.90;;;;;;6061046;23;20686;-41
2021/10/21 07:18:46;;;;;;;10.48;1.75;;;9.70;99.90;;;;;;6061354;23;20470;-40
2021/10/21 07:21:17;;;;;;;10.20;2.13;;;9.70;99.90;;;;;;6062078;23;20030;-41
2021/10/21 07:23:44;;;;;;;12.10;1.90;;;9.70;99.90;;;;;;6061945;23;20035;-42
2021/10/21 07:26:11;;;;;;;11.02;2.15;;;9.80;99.90;;;;;;6061400;23;20027;-41
2021/10/21 07:28:37;;;;;;;8.88;1.88;;;9.80;99.90;;;;;;6061447;23;20023;-43
2021/10/21 07:31:08;;;;;;;13.40;4.30;;;9.80;99.90;;;;;;6061687;23;20082;-42
2021/10/21 07:33:34;;;;;;;11.30;3.23;;;9.80;99.90;;;;;;6062914;23;20393;-42
2021/10/21 07:36:01;;;;;;;7.80;1.80;;;9.90;99.90;;;;;;6061376;23;20318;-42
2021/10/21 07:38:27;;;;;;;16.00;2.90;;;9.90;99.90;;;;;;6062096;23;20033;-42
2021/10/21 07:40:56;;;;;;;13.80;2.20;;;9.90;99.90;;;;;;6062034;23;20539;-41
2021/10/21 07:43:22;;;;;;;10.60;1.80;;;9.90;99.90;;;;;;6062214;23;20091;-42
2021/10/21 07:45:49;;;;;;;10.73;2.42;;;9.90;99.90;;;;;;6063134;23;20050;-42
2021/10/21 07:48:15;;;;;;;9.68;2.92;;;9.90;99.90;;;;;;6063668;23;20050;-41
2021/10/21 07:50:41;;;;;;;13.30;2.40;;;9.90;99.90;;;;;;6063586;23;20038;-41
2021/10/21 07:53:08;;;;;;;12.20;3.17;;;9.90;99.90;;;;;;6063555;23;20733;-41
2021/10/21 07:55:35;;;;;;;9.68;1.95;;;9.90;99.90;;;;;;6063528;23;20349;-41
2021/10/21 07:58:01;;;;;;;11.77;2.40;;;9.90;99.90;;;;;;6064020;23;20031;-41
2021/10/21 08:00:27;;;;;;;16.15;3.13;;;9.90;99.90;;;;;;6064017;23;20464;-42
2021/10/21 08:02:53;;;;;;;11.23;2.65;;;9.90;99.90;;;;;;6063726;23;20420;-40
2021/10/21 08:05:19;;;;;;;9.80;2.20;;;10.00;99.90;;;;;;6063142;23;20027;-41
2021/10/21 08:07:46;;;;;;;12.27;2.55;;;10.00;99.90;;;;;;6063706;23;20034;-40
2021/10/21 08:10:14;;;;;;;11.27;2.35;;;10.00;99.90;;;;;;6063629;23;20066;-40
2021/10/21 08:12:41;;;;;;;9.63;2.72;;;10.00;99.90;;;;;;6064232;23;20118;-40
2021/10/21 08:15:11;;;;;;;11.43;2.97;;;10.00;99.90;;;;;;6063936;23;20054;-41
2021/10/21 08:17:39;;;;;;;15.60;2.40;;;10.00;99.90;;;;;;6063455;23;20035;-40
2021/10/21 08:20:07;;;;;;;10.45;2.15;;;10.00;99.90;;;;;;6063870;23;20030;-40
2021/10/21 08:22:33;;;;;;;15.85;4.25;;;10.10;99.90;;;;;;6064082;23;20031;-42
2021/10/21 08:24:59;;;;;;;15.00;2.35;;;10.20;99.90;;;;;;6064496;23;20325;-42
2021/10/21 08:27:25;;;;;;;15.63;2.10;;;10.30;99.90;;;;;;6063969;23;20460;-41
2021/10/21 08:29:52;;;;;;;14.55;2.58;;;10.50;99.90;;;;;;6064575;23;20031;-41
2021/10/21 08:32:20;;;;;;;15.05;2.88;;;10.60;99.90;;;;;;6063800;23;20082;-43
2021/10/21 08:34:46;;;;;;;9.20;2.10;;;10.50;99.90;;;;;;6038091;23;20054;-42
2021/10/21 08:37:12;;;;;;;12.82;3.80;;;10.40;99.90;;;;;;6063631;23;20089;-42
2021/10/21 08:39:38;;;;;;;17.38;3.30;;;10.30;99.90;;;;;;6063930;23;20038;-41
2021/10/21 08:42:06;;;;;;;10.60;2.50;;;10.20;99.90;;;;;;6063687;23;20058;-41
2021/10/21 08:44:37;;;;;;;16.63;2.75;;;10.10;99.90;;;;;;6062662;23;20480;-41
2021/10/21 08:47:05;;;;;;;13.60;2.33;;;10.00;99.90;;;;;;6062539;23;20088;-41
2021/10/21 08:49:33;;;;;;;15.05;2.83;;;10.10;99.90;;;;;;6063136;23;20037;-41
2021/10/21 08:51:59;;;;;;;13.60;2.53;;;10.00;99.90;;;;;;6062984;23;20031;-42
2021/10/21 08:54:25;;;;;;;12.88;2.33;;;10.00;99.90;;;;;;6063344;23;20026;-42
2021/10/21 08:56:51;;;;;;;11.07;2.40;;;10.00;99.90;;;;;;6063009;23;20110;-43
2021/10/21 08:59:18;;;;;;;14.25;2.20;;;9.90;99.90;;;;;;6063455;23;20030;-44
2021/10/21 09:01:49;;;;;;;9.88;1.90;;;9.90;99.90;;;;;;6063715;23;20066;-42
2021/10/21 09:09:45;;;;;;;8.85;1.63;;;9.80;99.90;;;;;;6014228;23;20035;-42
2021/10/21 09:12:14;;;;;;;13.15;2.22;;;9.70;99.90;;;;;;6063536;23;20076;-42
2021/10/21 09:14:43;;;;;;;6.30;1.05;;;9.70;99.90;;;;;;6063173;23;20023;-43
2021/10/21 09:17:13;;;;;;;5.60;1.45;;;9.60;99.90;;;;;;6063701;23;20030;-42
2021/10/21 09:19:46;;;;;;;8.82;1.27;;;9.70;99.90;;;;;;6062894;23;20070;-43
2021/10/21 09:22:27;;;;;;;7.07;1.05;;;9.70;99.90;;;;;;6063102;23;20031;-44
2021/10/21 09:24:55;;;;;;;6.32;1.45;;;9.60;99.90;;;;;;6063059;23;20034;-41
2021/10/21 09:27:29;;;;;;;6.70;1.20;;;9.70;99.90;;;;;;6062305;23;20062;-42
2021/10/21 09:29:56;;;;;;;5.32;1.10;;;9.70;99.90;;;;;;6061971;23;20061;-43
2021/10/21 09:32:32;;;;;;;10.30;1.33;;;9.70;99.90;;;;;;6062739;23;20113;-43
2021/10/21 09:35:02;;;;;;;8.43;1.67;;;9.70;99.90;;;;;;6061675;23;20029;-41
2021/10/21 09:37:33;;;;;;;5.53;1.40;;;9.60;99.90;;;;;;6061876;23;20030;-41
2021/10/21 09:40:12;;;;;;;5.63;1.10;;;9.60;99.90;;;;;;6062208;23;20038;-43
2021/10/21 09:42:41;;;;;;;4.70;1.15;;;9.70;99.90;;;;;;6037340;23;20679;-43
2021/10/21 09:45:12;;;;;;;6.00;1.15;;;9.70;99.90;;;;;;6063484;23;20078;-42
2021/10/21 09:47:39;;;;;;;8.43;2.03;;;9.80;99.90;;;;;;6037182;23;20073;-42
2021/10/21 09:50:32;;;;;;;5.68;2.35;;;9.80;99.90;;;;;;6061385;23;20535;-41
2021/10/21 09:53:18;;;;;;;6.53;0.95;;;9.70;99.90;;;;;;6062484;23;20070;-40
2021/10/21 09:56:01;;;;;;;2.45;0.70;;;9.60;99.90;;;;;;6062186;23;20053;-40
2021/10/21 09:58:32;;;;;;;10.65;3.45;;;9.50;99.90;;;;;;6061789;23;20062;-43
2021/10/21 10:01:12;;;;;;;5.50;0.98;;;9.40;99.90;;;;;;6062581;23;20038;-44
2021/10/21 10:03:40;;;;;;;7.22;1.20;;;9.40;99.90;;;;;;6062435;23;20073;-42
2021/10/21 10:06:07;;;;;;;5.55;1.10;;;9.40;99.90;;;;;;6062973;23;20050;-46
2021/10/21 10:08:33;;;;;;;7.38;1.35;;;9.40;99.90;;;;;;6036524;23;20138;-42
2021/10/21 10:11:08;;;;;;;3.65;1.15;;;9.40;99.90;;;;;;6061850;23;20066;-42
2021/10/21 10:13:35;;;;;;;4.95;1.42;;;9.40;99.90;;;;;;6062652;23;20031;-43
2021/10/21 10:16:01;;;;;;;3.33;1.08;;;9.40;99.90;;;;;;6061521;23;20022;-44
2021/10/21 10:18:41;;;;;;;4.63;1.27;;;9.40;99.90;;;;;;6034106;23;20031;-44
2021/10/21 10:21:19;;;;;;;3.50;0.75;;;9.40;99.90;;;;;;6061660;23;20344;-41
2021/10/21 10:23:55;;;;;;;4.18;0.68;;;9.30;99.90;;;;;;6061469;23;20027;-42
2021/10/21 10:26:45;;;;;;;5.15;0.60;;;9.30;99.90;;;;;;6061227;23;20037;-43
2021/10/21 10:29:39;;;;;;;4.63;0.80;;;9.30;99.90;;;;;;6060603;23;20035;-41
2021/10/21 10:32:26;;;;;;;2.58;0.63;;;9.20;99.90;;;;;;6060046;23;20030;-42
2021/10/21 10:34:53;;;;;;;3.92;1.08;;;9.10;99.90;;;;;;6060007;23;20082;-42
2021/10/21 10:37:19;;;;;;;3.92;0.80;;;9.10;99.90;;;;;;6060575;23;20058;-42
2021/10/21 10:39:51;;;;;;;1.85;0.60;;;9.00;99.90;;;;;;6060661;23;20133;-42
2021/10/21 10:42:38;;;;;;;6.25;2.53;;;9.00;99.90;;;;;;6059558;23;20453;-43
2021/10/21 10:45:09;;;;;;;4.88;0.60;;;8.90;99.90;;;;;;6034020;23;20027;-44
2021/10/21 10:47:58;;;;;;;4.03;0.57;;;8.80;99.90;;;;;;6060646;23;20030;-43
2021/10/21 10:50:26;;;;;;;4.07;0.52;;;8.80;99.90;;;;;;6059194;23;20038;-42
2021/10/21 10:53:11;;;;;;;3.53;0.50;;;8.80;99.90;;;;;;6060005;23;20473;-43
2021/10/21 10:55:49;;;;;;;4.78;0.80;;;8.80;99.90;;;;;;6060704;23;20053;-44
2021/10/21 10:58:23;;;;;;;2.10;0.60;;;8.80;99.90;;;;;;6059912;23;20081;-42
2021/10/21 11:00:51;;;;;;;5.40;0.70;;;8.80;99.90;;;;;;6059910;23;20034;-43
2021/10/21 11:03:33;;;;;;;3.08;0.73;;;8.80;99.90;;;;;;6059954;23;20026;-43
2021/10/21 11:06:04;;;;;;;6.03;0.70;;;8.80;99.90;;;;;;6061137;23;20329;-42
2021/10/21 11:08:56;;;;;;;4.90;1.02;;;8.90;99.90;;;;;;6061089;23;20027;-45
2021/10/21 11:11:47;;;;;;;4.93;1.00;;;8.90;99.90;;;;;;6061027;23;20038;-44
2021/10/21 11:14:33;;;;;;;1.85;0.55;;;9.00;99.90;;;;;;6061350;23;20030;-42
2021/10/21 11:16:59;;;;;;;7.38;1.20;;;9.00;99.90;;;;;;6060848;23;20129;-42
2021/10/21 11:19:46;;;;;;;5.75;0.70;;;9.10;99.90;;;;;;6060729;23;20030;-43
2021/10/21 11:22:18;;;;;;;8.77;1.55;;;9.10;99.90;;;;;;6061127;23;20034;-43
2021/10/21 11:24:54;;;;;;;;;;;9.10;99.90;;;;;;6061415;23;20018;-41
2021/10/21 11:27:32;;;;;;;4.32;1.08;;;9.10;99.90;;;;;;6059709;23;20395;-42
2021/10/21 11:30:19;;;;;;;7.70;0.82;;;9.10;99.90;;;;;;6060033;23;20425;-42
2021/10/21 11:32:46;;;;;;;5.63;1.30;;;9.20;99.90;;;;;;6060036;23;20026;-43
2021/10/21 11:35:18;;;;;;;5.90;1.02;;;9.20;99.90;;;;;;6060739;23;20117;-43
2021/10/21 11:37:56;;;;;;;5.20;0.90;;;9.20;99.90;;;;;;6059805;23;20031;-42
2021/10/21 11:40:41;;;;;;;6.72;1.83;;;9.10;99.90;;;;;;6059734;23;20082;-42
2021/10/21 11:43:18;;;;;;;4.47;1.25;;;9.10;99.90;;;;;;6060365;23;20035;-42
2021/10/21 11:45:45;;;;;;;5.55;1.35;;;9.20;99.90;;;;;;6059905;23;20086;-44
2021/10/21 11:48:14;;;;;;;4.97;1.20;;;9.20;99.90;;;;;;6033666;23;20023;-43
2021/10/21 11:50:43;;;;;;;6.07;1.27;;;9.10;99.90;;;;;;6059270;23;20050;-43
2021/10/21 11:53:12;;;;;;;8.88;1.52;;;9.10;99.90;;;;;;6059572;23;20031;-42
2021/10/21 11:55:39;;;;;;;11.70;1.70;;;9.00;99.90;;;;;;6059996;23;20191;-43
2021/10/21 11:58:21;;;;;;;6.65;1.30;;;9.00;99.90;;;;;;6059967;23;20038;-43
2021/10/21 12:00:54;;;;;;;10.15;1.50;;;8.90;99.90;;;;;;6059816;23;20098;-43
2021/10/21 12:03:35;;;;;;;7.90;1.90;;;8.90;99.90;;;;;;6060287;23;20482;-44
2021/10/21 12:06:09;;;;;;;4.75;1.30;;;8.90;99.90;;;;;;6059821;23;20134;-42
2021/10/21 12:08:38;;;;;;;11.90;1.83;;;8.80;99.90;;;;;;6059779;23;20038;-41
2021/10/21 12:11:06;;;;;;;13.57;1.92;;;8.80;99.90;;;;;;6059473;23;20086;-41
2021/10/21 12:13:38;;;;;;;9.70;2.05;;;8.80;99.90;;;;;;6059450;23;20034;-43
2021/10/21 12:16:10;;;;;;;10.43;2.20;;;8.80;99.90;;;;;;6059327;23;20027;-42
2021/10/21 12:18:37;;;;;;;11.20;3.45;;;8.80;99.90;;;;;;6059358;23;20146;-42
2021/10/21 12:21:07;;;;;;;14.63;2.10;;;8.80;99.90;;;;;;6058371;23;20037;-43
2021/10/21 12:23:47;;;;;;;9.93;2.40;;;8.70;99.90;;;;;;6059891;23;20030;-41
2021/10/21 12:26:28;;;;;;;11.20;1.80;;;8.70;99.90;;;;;;6034830;23;20126;-42
2021/10/21 12:28:59;;;;;;;7.85;1.73;;;8.60;99.90;;;;;;6059498;23;20026;-42
2021/10/21 12:31:36;;;;;;;7.10;1.48;;;8.60;99.90;;;;;;6058314;23;20072;-41
2021/10/21 12:34:28;;;;;;;8.10;1.75;;;8.60;99.90;;;;;;6060338;23;20027;-42
2021/10/21 12:36:58;;;;;;;8.82;1.70;;;8.70;99.90;;;;;;6000672;23;20042;-41
2021/10/21 12:39:35;;;;;;;9.63;1.83;;;8.70;99.90;;;;;;6001299;23;20063;-42
2021/10/21 12:42:06;;;;;;;13.60;1.83;;;8.70;99.90;;;;;;6000121;23;20354;-42
2021/10/21 12:44:37;;;;;;;;;;;8.70;99.90;;;;;;6002459;23;20126;-41
2021/10/21 12:47:14;;;;;;;6.30;1.55;;;8.70;99.90;;;;;;6001043;23;20012;-42
2021/10/21 12:49:53;;;;;;;10.98;1.52;;;8.80;99.90;;;;;;6000457;23;20036;-40
2021/10/21 12:52:27;;;;;;;6.90;2.15;;;8.80;99.90;;;;;;6000748;23;20143;-41
2021/10/21 12:55:27;;;;;;;8.52;1.58;;;8.80;99.90;;;;;;6001080;23;20028;-43
2021/10/21 12:58:09;;;;;;;8.35;2.00;;;8.80;99.90;;;;;;6001385;23;20103;-42
2021/10/21 13:00:39;;;;;;;4.25;1.40;;;8.80;99.90;;;;;;5999909;23;20114;-42
2021/10/21 13:03:17;;;;;;;11.73;2.55;;;8.90;99.90;;;;;;6001333;23;20084;-45